createdAt,value
2023-08-01T00:00:12.148Z,97617.22
2023-08-01T00:02:39.899Z,97599.16
2023-08-01T00:05:06.907Z,97592.94
2023-08-01T00:07:35.775Z,97593.59
2023-08-01T00:10:04.693Z,97584.28
2023-08-01T00:12:31.519Z,97581.84
2023-08-01T00:14:58.601Z,97579.34
2023-08-01T00:17:25.738Z,97577.28
2023-08-01T00:19:52.530Z,97561.25
2023-08-01T00:22:19.268Z,97554.69
2023-08-01T00:24:45.978Z,97548.13
2023-08-01T00:27:12.652Z,97548.50
2023-08-01T00:29:39.271Z,97539.47
2023-08-01T00:32:06.370Z,97532.25
2023-08-01T00:34:33.034Z,97519.75
2023-08-01T00:36:59.633Z,97508.22
2023-08-01T00:39:26.319Z,97504.09
2023-08-01T00:41:52.985Z,97504.34
2023-08-01T00:44:19.728Z,97497.94
2023-08-01T00:46:46.818Z,97489.31
2023-08-01T00:49:14.493Z,97481.69
2023-08-01T00:51:42.003Z,97483.97
2023-08-01T00:54:08.704Z,97479.44
2023-08-01T00:56:36.316Z,97479.22
2023-08-01T00:59:02.957Z,97478.22
2023-08-01T01:01:29.680Z,97467.53
2023-08-01T01:03:57.082Z,97464.03
2023-08-01T01:06:33.601Z,97464.25
2023-08-01T01:09:00.832Z,97445.53
2023-08-01T01:11:27.815Z,97445.31
2023-08-01T01:13:54.632Z,97441.22
2023-08-01T01:16:21.985Z,97444.09
2023-08-01T01:18:48.652Z,97429.91
2023-08-01T01:21:15.311Z,97406.66
2023-08-01T01:23:43.846Z,97385.66
2023-08-01T01:26:11.690Z,97375.78
2023-08-01T01:28:38.654Z,97374.97
2023-08-01T01:31:05.583Z,97357.69
2023-08-01T01:33:32.927Z,97356.47
2023-08-01T01:36:02.033Z,97348.66
2023-08-01T01:38:28.643Z,97340.22
2023-08-01T01:40:55.247Z,97326.84
2023-08-01T01:43:21.902Z,97317.41
2023-08-01T01:45:48.501Z,97353.19
2023-08-01T01:48:15.185Z,97373.56
2023-08-01T01:50:41.831Z,97394.53
2023-08-01T01:53:08.541Z,97394.34
2023-08-01T01:55:35.717Z,97388.16
2023-08-01T01:58:02.398Z,97394.13
2023-08-01T02:00:29.125Z,97387.53
2023-08-01T02:02:58.524Z,97399.88
2023-08-01T02:05:25.107Z,97394.94
2023-08-01T02:07:51.794Z,97405.63
2023-08-01T02:10:18.501Z,97396.59
2023-08-01T02:12:45.135Z,97384.66
2023-08-01T02:15:11.845Z,97382.81
2023-08-01T02:17:38.566Z,97371.09
2023-08-01T02:20:05.706Z,97372.75
2023-08-01T02:22:32.363Z,97370.47
2023-08-01T02:24:58.955Z,97370.06
2023-08-01T02:27:25.584Z,97374.63
2023-08-01T02:29:52.300Z,97377.06
2023-08-01T02:32:19.169Z,97371.13
2023-08-01T02:34:46.103Z,97361.44
2023-08-01T02:37:12.792Z,97347.69
2023-08-01T02:39:39.450Z,97362.91
2023-08-01T02:42:06.258Z,97364.31
2023-08-01T02:44:33.179Z,97345.78
2023-08-01T02:46:59.839Z,97347.88
2023-08-01T02:49:26.570Z,97346.63
2023-08-01T02:51:53.198Z,97326.50
2023-08-01T02:54:19.847Z,97323.19
2023-08-01T02:56:46.514Z,97330.59
2023-08-01T02:59:13.269Z,97332.22
2023-08-01T03:01:40.582Z,97326.88
2023-08-01T03:04:07.964Z,97325.66
2023-08-01T03:06:34.968Z,97319.28
2023-08-01T03:09:02.109Z,97311.88
2023-08-01T03:11:28.867Z,97305.09
2023-08-01T03:13:55.858Z,97305.69
2023-08-01T03:16:22.638Z,97288.63
2023-08-01T03:18:49.306Z,97296.25
2023-08-01T03:21:16.023Z,97282.25
2023-08-01T03:23:42.717Z,97284.28
2023-08-01T03:26:09.391Z,97277.09
2023-08-01T03:28:36.161Z,97280.00
2023-08-01T03:31:03.539Z,97277.91
2023-08-01T03:33:30.504Z,97271.34
2023-08-01T03:35:57.107Z,97263.13
2023-08-01T03:38:23.756Z,97259.81
2023-08-01T03:40:50.441Z,97264.16
2023-08-01T03:43:17.140Z,97252.00
2023-08-01T03:45:43.799Z,97258.59
2023-08-01T03:48:10.489Z,97261.88
2023-08-01T03:50:37.210Z,97256.13
2023-08-01T03:53:03.869Z,97255.31
2023-08-01T03:55:30.439Z,97249.53
2023-08-01T03:57:57.105Z,97236.38
2023-08-01T04:00:23.906Z,97236.59
2023-08-01T04:02:50.676Z,97245.00
2023-08-01T04:05:17.379Z,97242.75
2023-08-01T04:07:44.084Z,97235.56
2023-08-01T04:10:11.011Z,97246.47
2023-08-01T04:12:37.812Z,97241.94
2023-08-01T04:15:04.808Z,97236.78
2023-08-01T04:17:31.511Z,97234.75
2023-08-01T04:19:58.259Z,97242.75
2023-08-01T04:22:24.953Z,97239.66
2023-08-01T04:24:51.987Z,97242.56
2023-08-01T04:27:18.765Z,97242.97
2023-08-01T04:29:45.454Z,97252.00
2023-08-01T04:32:15.103Z,97246.25
2023-08-01T04:34:44.889Z,97252.00
2023-08-01T04:37:14.581Z,97247.28
2023-08-01T04:39:41.171Z,97261.47
2023-08-01T04:42:08.016Z,97236.38
2023-08-01T04:44:34.689Z,97259.00
2023-08-01T04:47:01.392Z,97224.88
2023-08-01T04:49:28.053Z,97223.41
2023-08-01T04:51:55.323Z,97224.03
2023-08-01T04:54:21.957Z,97225.69
2023-08-01T04:56:48.705Z,97226.47
2023-08-01T04:59:15.466Z,97209.59
2023-08-01T05:01:42.208Z,97203.44
2023-08-01T05:04:08.888Z,97185.13
2023-08-01T05:06:35.551Z,97176.47
2023-08-01T05:09:02.278Z,97169.72
2023-08-01T05:11:28.916Z,97155.75
2023-08-01T05:13:55.556Z,97152.03
2023-08-01T05:16:22.237Z,97167.47
2023-08-01T05:18:48.892Z,97171.78
2023-08-01T05:21:15.490Z,97179.59
2023-08-01T05:23:42.222Z,97163.56
2023-08-01T05:26:08.836Z,97170.13
2023-08-01T05:28:35.548Z,97169.94
2023-08-01T05:31:02.167Z,97165.41
2023-08-01T05:33:28.852Z,97155.75
2023-08-01T05:35:55.529Z,97152.44
2023-08-01T05:38:22.151Z,97145.47
2023-08-01T05:40:48.829Z,97138.84
2023-08-01T05:43:15.656Z,97143.38
2023-08-01T05:45:42.579Z,97153.47
2023-08-01T05:48:09.378Z,97155.34
2023-08-01T05:50:36.045Z,97152.44
2023-08-01T05:53:02.778Z,97163.75
2023-08-01T05:55:29.470Z,97160.88
2023-08-01T05:57:56.223Z,97171.16
2023-08-01T06:00:22.863Z,97184.13
2023-08-01T06:02:49.761Z,97174.88
2023-08-01T06:05:17.023Z,97163.53
2023-08-01T06:07:43.690Z,97156.13
2023-08-01T06:10:10.492Z,97160.44
2023-08-01T06:12:37.443Z,97161.06
2023-08-01T06:15:05.127Z,97150.34
2023-08-01T06:17:31.992Z,97146.66
2023-08-01T06:19:58.789Z,97147.47
2023-08-01T06:22:25.448Z,97150.13
2023-08-01T06:24:52.078Z,97135.72
2023-08-01T06:27:19.143Z,97130.97
2023-08-01T06:29:45.876Z,97130.94
2023-08-01T06:32:12.910Z,97130.13
2023-08-01T06:34:39.701Z,97137.75
2023-08-01T06:37:06.506Z,97136.28
2023-08-01T06:39:33.146Z,97148.41
2023-08-01T06:41:59.776Z,97150.28
2023-08-01T06:44:26.403Z,97146.78
2023-08-01T06:46:53.005Z,97151.94
2023-08-01T06:49:19.668Z,97136.28
2023-08-01T06:51:46.264Z,97150.69
2023-08-01T06:54:12.941Z,97153.78
2023-08-01T06:56:39.677Z,97177.41
2023-08-01T06:59:06.555Z,97175.56
2023-08-01T07:01:34.293Z,97172.28
2023-08-01T07:04:01.044Z,97176.19
2023-08-01T07:06:27.739Z,97191.22
2023-08-01T07:08:54.390Z,97182.72
2023-08-01T07:11:20.999Z,97183.75
2023-08-01T07:13:47.651Z,97195.72
2023-08-01T07:16:14.384Z,97182.72
2023-08-01T07:18:41.132Z,97187.88
2023-08-01T07:21:07.725Z,97196.25
2023-08-01T07:23:35.358Z,97191.13
2023-08-01T07:26:02.042Z,97198.75
2023-08-01T07:28:28.947Z,97198.72
2023-08-01T07:31:07.080Z,97203.66
2023-08-01T07:33:34.793Z,97207.34
2023-08-01T07:36:01.679Z,97200.09
2023-08-01T07:38:28.372Z,97205.06
2023-08-01T07:40:56.395Z,97211.88
2023-08-01T07:43:23.142Z,97211.00
2023-08-01T07:45:51.747Z,97210.72
2023-08-01T07:48:18.531Z,97219.13
2023-08-01T07:50:45.224Z,97215.84
2023-08-01T07:53:11.924Z,97213.78
2023-08-01T07:55:38.671Z,97210.91
2023-08-01T07:58:05.420Z,97223.22
2023-08-01T08:00:32.102Z,97224.22
2023-08-01T08:02:59.007Z,97228.72
2023-08-01T08:05:25.750Z,97227.28
2023-08-01T08:07:52.601Z,97233.97
2023-08-01T08:10:19.768Z,97235.31
2023-08-01T08:12:46.492Z,97224.91
2023-08-01T08:15:14.677Z,97240.00
2023-08-01T08:17:41.352Z,97234.66
2023-08-01T08:20:08.619Z,97256.06
2023-08-01T08:22:35.261Z,97254.44
2023-08-01T08:25:01.961Z,97251.34
2023-08-01T08:27:28.609Z,97249.50
2023-08-01T08:29:56.378Z,97248.88
2023-08-01T08:32:23.127Z,97265.38
2023-08-01T08:34:49.805Z,97281.22
2023-08-01T08:37:16.436Z,97283.66
2023-08-01T08:39:43.091Z,97283.06
2023-08-01T08:42:09.885Z,97292.31
2023-08-01T08:44:44.185Z,97296.84
2023-08-01T08:47:12.156Z,97305.06
2023-08-01T08:49:39.861Z,97301.78
2023-08-01T08:52:07.047Z,97313.94
2023-08-01T08:54:34.060Z,97312.50
2023-08-01T08:57:01.109Z,97321.53
2023-08-01T08:59:30.531Z,97315.38
2023-08-01T09:01:57.052Z,97312.47
2023-08-01T09:04:23.740Z,97321.97
2023-08-01T09:06:52.642Z,97326.25
2023-08-01T09:09:19.746Z,97324.41
2023-08-01T09:11:53.641Z,97321.94
2023-08-01T09:14:20.870Z,97329.16
2023-08-01T09:16:48.620Z,97328.94
2023-08-01T09:19:20.633Z,97333.03
2023-08-01T09:21:48.608Z,97327.72
2023-08-01T09:24:17.100Z,97325.25
2023-08-01T09:26:44.953Z,97331.84
2023-08-01T09:29:11.804Z,97338.44
2023-08-01T09:31:43.801Z,97331.63
2023-08-01T09:34:24.997Z,97326.47
2023-08-01T09:36:52.573Z,97326.91
2023-08-01T09:39:21.667Z,97336.78
2023-08-01T09:41:57.204Z,97326.06
2023-08-01T09:44:24.193Z,97326.66
2023-08-01T09:46:57.633Z,97321.50
2023-08-01T09:49:24.318Z,97328.13
2023-08-01T09:51:51.785Z,97326.44
2023-08-01T09:54:19.279Z,97325.41
2023-08-01T09:56:47.021Z,97329.75
2023-08-01T09:59:17.665Z,97334.25
2023-08-01T10:01:46.179Z,97331.31
2023-08-01T10:04:13.859Z,97334.00
2023-08-01T10:06:44.903Z,97341.13
2023-08-01T10:09:12.014Z,97336.19
2023-08-01T10:11:39.906Z,97327.47
2023-08-01T10:14:07.820Z,97328.28
2023-08-01T10:16:37.376Z,97325.72
2023-08-01T10:19:07.223Z,97325.38
2023-08-01T10:21:34.200Z,97337.19
2023-08-01T10:24:02.033Z,97336.00
2023-08-01T10:26:28.919Z,97330.09
2023-08-01T10:28:55.531Z,97335.69
2023-08-01T10:31:23.344Z,97346.41
2023-08-01T10:33:51.694Z,97348.81
2023-08-01T10:36:30.525Z,97352.09
2023-08-01T10:38:58.736Z,97342.31
2023-08-01T10:41:33.520Z,97340.78
2023-08-01T10:44:10.742Z,97329.50
2023-08-01T10:46:52.672Z,97329.97
2023-08-01T10:49:20.978Z,97338.25
2023-08-01T10:51:47.705Z,97329.63
2023-08-01T10:54:24.497Z,97333.88
2023-08-01T10:56:56.400Z,97323.22
2023-08-01T10:59:23.691Z,97324.56
2023-08-01T11:01:52.478Z,97328.22
2023-08-01T11:04:24.359Z,97327.63
2023-08-01T11:06:53.016Z,97319.50
2023-08-01T11:09:21.583Z,97317.00
2023-08-01T11:11:56.480Z,97327.44
2023-08-01T11:14:30.426Z,97332.31
2023-08-01T11:16:58.148Z,97339.94
2023-08-01T11:19:27.139Z,97345.78
2023-08-01T11:21:54.627Z,97346.53
2023-08-01T11:24:21.430Z,97352.06
2023-08-01T11:26:49.830Z,97358.38
2023-08-01T11:29:17.260Z,97360.88
2023-08-01T11:31:58.016Z,97371.66
2023-08-01T11:34:24.881Z,97367.28
2023-08-01T11:36:51.967Z,97370.56
2023-08-01T11:39:19.376Z,97378.94
2023-08-01T11:41:46.288Z,97375.84
2023-08-01T11:44:13.001Z,97376.09
2023-08-01T11:46:40.724Z,97366.47
2023-08-01T11:49:08.930Z,97360.31
2023-08-01T11:51:43.681Z,97351.31
2023-08-01T11:54:12.586Z,97352.25
2023-08-01T11:56:40.310Z,97343.88
2023-08-01T11:59:17.707Z,97346.50
2023-08-01T12:01:48.327Z,97355.47
2023-08-01T12:04:30.323Z,97341.28
2023-08-01T12:06:57.596Z,97352.09
2023-08-01T12:09:25.263Z,97354.66
2023-08-01T12:12:05.278Z,97351.63
2023-08-01T12:14:32.130Z,97358.53
2023-08-01T12:16:58.877Z,97360.88
2023-08-01T12:19:25.479Z,97363.72
2023-08-01T12:21:52.211Z,97366.34
2023-08-01T12:24:18.845Z,97367.44
2023-08-01T12:26:45.628Z,97354.75
2023-08-01T12:29:13.290Z,97360.75
2023-08-01T12:31:40.249Z,97360.88
2023-08-01T12:34:06.945Z,97362.69
2023-08-01T12:36:33.637Z,97367.00
2023-08-01T12:39:00.387Z,97372.84
2023-08-01T12:41:27.100Z,97403.78
2023-08-01T12:43:53.749Z,97390.16
2023-08-01T12:46:20.441Z,97402.56
2023-08-01T12:48:47.922Z,97405.97
2023-08-01T12:51:15.909Z,97399.63
2023-08-01T12:53:43.674Z,97405.75
2023-08-01T12:56:10.474Z,97409.25
2023-08-01T12:58:37.163Z,97425.16
2023-08-01T13:01:05.162Z,97436.53
2023-08-01T13:03:32.063Z,97431.00
2023-08-01T13:05:59.520Z,97424.41
2023-08-01T13:08:26.353Z,97430.38
2023-08-01T13:10:53.052Z,97428.13
2023-08-01T13:13:19.897Z,97422.44
2023-08-01T13:15:46.503Z,97421.84
2023-08-01T13:18:13.445Z,97420.38
2023-08-01T13:20:40.045Z,97419.19
2023-08-01T13:23:06.736Z,97423.22
2023-08-01T13:25:33.426Z,97418.31
2023-08-01T13:28:00.108Z,97415.91
2023-08-01T13:30:26.727Z,97421.13
2023-08-01T13:32:53.367Z,97419.25
2023-08-01T13:35:20.103Z,97421.59
2023-08-01T13:37:46.776Z,97426.28
2023-08-01T13:40:14.664Z,97412.47
2023-08-01T13:42:42.517Z,97419.50
2023-08-01T13:45:09.537Z,97419.97
2023-08-01T13:47:36.324Z,97416.88
2023-08-01T13:50:03.248Z,97422.19
2023-08-01T13:52:29.870Z,97415.59
2023-08-01T13:54:56.613Z,97412.88
2023-08-01T13:57:24.895Z,97422.81
2023-08-01T13:59:58.864Z,97418.91
2023-08-01T14:02:37.260Z,97408.91
2023-08-01T14:05:04.315Z,97424.97
2023-08-01T14:07:30.967Z,97422.66
2023-08-01T14:09:58.381Z,97422.66
2023-08-01T14:12:25.800Z,97439.88
2023-08-01T14:14:52.562Z,97438.72
2023-08-01T14:17:19.264Z,97426.66
2023-08-01T14:19:45.897Z,97437.28
2023-08-01T14:22:12.554Z,97421.13
2023-08-01T14:24:39.164Z,97423.16
2023-08-01T14:27:06.139Z,97432.22
2023-08-01T14:29:32.731Z,97441.16
2023-08-01T14:31:59.486Z,97425.09
2023-08-01T14:34:26.204Z,97434.09
2023-08-01T14:36:52.796Z,97427.22
2023-08-01T14:39:22.973Z,97434.13
2023-08-01T14:44:20.873Z,97426.72
2023-08-01T14:46:47.550Z,97429.25
2023-08-01T14:49:14.225Z,97437.22
2023-08-01T14:51:40.904Z,97442.78
2023-08-01T14:54:07.651Z,97448.00
2023-08-01T14:56:34.346Z,97432.38
2023-08-01T14:59:01.030Z,97441.28
2023-08-01T15:01:27.735Z,97449.97
2023-08-01T15:03:55.090Z,97475.69
2023-08-01T15:06:21.917Z,97465.19
2023-08-01T15:08:48.894Z,97464.75
2023-08-01T15:11:16.855Z,97469.06
2023-08-01T15:13:43.500Z,97477.66
2023-08-01T15:16:12.759Z,97475.97
2023-08-01T15:18:41.212Z,97488.34
2023-08-01T15:21:07.897Z,97492.84
2023-08-01T15:23:34.521Z,97496.56
2023-08-01T15:26:01.352Z,97500.19
2023-08-01T15:28:28.015Z,97501.25
2023-08-01T15:31:06.764Z,97503.22
2023-08-01T15:33:34.538Z,97509.31
2023-08-01T15:36:02.757Z,97514.78
2023-08-01T15:38:31.779Z,97528.00
2023-08-01T15:40:58.944Z,97535.91
2023-08-01T15:43:26.991Z,97548.13
2023-08-01T15:45:53.707Z,97532.81
2023-08-01T15:48:20.490Z,97544.41
2023-08-01T15:50:47.295Z,97551.22
2023-08-01T15:53:13.973Z,97542.03
2023-08-01T15:55:40.605Z,97543.34
2023-08-01T15:58:07.243Z,97547.56
2023-08-01T16:00:33.867Z,97556.63
2023-08-01T16:03:00.641Z,97570.28
2023-08-01T16:05:27.340Z,97599.66
2023-08-01T16:07:53.940Z,97605.03
2023-08-01T16:10:20.578Z,97615.97
2023-08-01T16:12:47.208Z,97631.28
2023-08-01T16:15:13.844Z,97624.84
2023-08-01T16:17:40.681Z,97619.13
2023-08-01T16:20:08.245Z,97625.66
2023-08-01T16:22:34.846Z,97629.34
2023-08-01T16:25:01.478Z,97630.44
2023-08-01T16:27:28.116Z,97628.28
2023-08-01T16:29:54.966Z,97636.34
2023-08-01T16:32:21.615Z,97629.53
2023-08-01T16:34:48.272Z,97630.13
2023-08-01T16:37:15.002Z,97632.31
2023-08-01T16:39:43.327Z,97632.03
2023-08-01T16:42:09.945Z,97624.06
2023-08-01T16:44:36.969Z,97611.50
2023-08-01T16:47:03.652Z,97621.13
2023-08-01T16:49:30.398Z,97615.13
2023-08-01T16:51:57.175Z,97615.16
2023-08-01T16:54:24.456Z,97611.72
2023-08-01T16:56:51.157Z,97615.00
2023-08-01T16:59:18.378Z,97607.00
2023-08-01T17:01:45.019Z,97594.28
2023-08-01T17:04:11.898Z,97600.50
2023-08-01T17:06:39.473Z,97615.75
2023-08-01T17:09:10.173Z,97605.38
2023-08-01T17:11:38.480Z,97605.94
2023-08-01T17:14:05.150Z,97609.44
2023-08-01T17:16:32.914Z,97611.09
2023-08-01T17:18:59.596Z,97618.00
2023-08-01T17:21:26.227Z,97616.16
2023-08-01T17:23:54.429Z,97626.16
2023-08-01T17:26:21.182Z,97621.88
2023-08-01T17:28:47.872Z,97621.88
2023-08-01T17:31:14.973Z,97620.28
2023-08-01T17:33:41.800Z,97619.25
2023-08-01T17:36:08.534Z,97624.38
2023-08-01T17:38:36.626Z,97626.84
2023-08-01T17:41:25.799Z,97624.41
2023-08-01T17:43:54.337Z,97640.88
2023-08-01T17:46:21.555Z,97637.03
2023-08-01T17:48:49.222Z,97636.25
2023-08-01T17:51:16.316Z,97639.44
2023-08-01T17:53:45.431Z,97646.81
2023-08-01T17:56:13.668Z,97642.38
2023-08-01T17:58:40.840Z,97643.00
2023-08-01T18:01:08.524Z,97649.47
2023-08-01T18:03:36.138Z,97647.19
2023-08-01T18:06:13.218Z,97650.69
2023-08-01T18:08:40.949Z,97657.03
2023-08-01T18:11:29.136Z,97656.50
2023-08-01T18:14:00.069Z,97657.88
2023-08-01T18:16:27.099Z,97657.25
2023-08-01T18:18:54.777Z,97658.28
2023-08-01T18:21:21.975Z,97665.06
2023-08-01T18:23:48.637Z,97662.19
2023-08-01T18:26:24.713Z,97666.78
2023-08-01T18:28:55.738Z,97668.91
2023-08-01T18:31:25.097Z,97664.38
2023-08-01T18:33:51.742Z,97667.94
2023-08-01T18:36:21.497Z,97656.38
2023-08-01T18:38:50.056Z,97658.47
2023-08-01T18:41:16.948Z,97660.13
2023-08-01T18:43:43.956Z,97659.72
2023-08-01T18:46:10.736Z,97660.13
2023-08-01T18:48:37.634Z,97663.81
2023-08-01T18:51:11.881Z,97668.31
2023-08-01T18:53:38.550Z,97667.94
2023-08-01T18:56:12.431Z,97676.50
2023-08-01T18:58:40.863Z,97682.50
2023-08-01T19:01:10.692Z,97694.41
2023-08-01T19:03:37.447Z,97697.72
2023-08-01T19:06:04.211Z,97703.63
2023-08-01T19:08:30.943Z,97695.38
2023-08-01T19:10:57.610Z,97707.38
2023-08-01T19:13:24.251Z,97704.44
2023-08-01T19:15:51.120Z,97712.84
2023-08-01T19:18:17.775Z,97711.50
2023-08-01T19:20:44.508Z,97717.66
2023-08-01T19:23:11.125Z,97728.72
2023-08-01T19:25:37.763Z,97744.00
2023-08-01T19:28:04.593Z,97734.06
2023-08-01T19:30:34.919Z,97741.50
2023-08-01T19:33:04.315Z,97733.75
2023-08-01T19:35:31.019Z,97737.75
2023-08-01T19:37:58.173Z,97736.91
2023-08-01T19:40:24.919Z,97747.34
2023-08-01T19:42:51.519Z,97752.50
2023-08-01T19:45:18.361Z,97748.44
2023-08-01T19:47:45.311Z,97754.44
2023-08-01T19:50:12.098Z,97753.34
2023-08-01T19:52:39.548Z,97759.13
2023-08-01T19:55:06.484Z,97762.72
2023-08-01T19:57:37.440Z,97767.22
2023-08-01T20:00:07.714Z,97763.38
2023-08-01T20:02:40.054Z,97775.97
2023-08-01T20:05:10.928Z,97766.56
2023-08-01T20:07:37.610Z,97780.16
2023-08-01T20:10:04.534Z,97781.00
2023-08-01T20:12:31.400Z,97772.38
2023-08-01T20:14:59.206Z,97783.06
2023-08-01T20:17:26.012Z,97787.16
2023-08-01T20:19:56.072Z,97783.50
2023-08-01T20:22:22.702Z,97788.00
2023-08-01T20:24:49.478Z,97789.59
2023-08-01T20:27:16.293Z,97794.09
2023-08-01T20:29:43.197Z,97789.13
2023-08-01T20:32:09.980Z,97797.31
2023-08-01T20:34:36.890Z,97795.75
2023-08-01T20:37:04.475Z,97794.47
2023-08-01T20:39:31.858Z,97802.75
2023-08-01T20:41:58.547Z,97805.88
2023-08-01T20:44:25.639Z,97802.38
2023-08-01T20:46:52.457Z,97802.38
2023-08-01T20:49:19.757Z,97798.59
2023-08-01T20:51:46.460Z,97798.16
2023-08-01T20:54:13.157Z,97807.00
2023-08-01T20:56:40.102Z,97798.53
2023-08-01T20:59:06.955Z,97797.59
2023-08-01T21:01:34.324Z,97805.16
2023-08-01T21:04:01.210Z,97806.34
2023-08-01T21:06:27.971Z,97812.09
2023-08-01T21:09:04.996Z,97809.22
2023-08-01T21:11:33.149Z,97805.91
2023-08-01T21:13:59.913Z,97800.41
2023-08-01T21:16:26.666Z,97798.91
2023-08-01T21:18:53.311Z,97796.31
2023-08-01T21:21:20.122Z,97791.72
2023-08-01T21:23:46.850Z,97800.41
2023-08-01T21:26:13.705Z,97795.06
2023-08-01T21:28:40.368Z,97804.44
2023-08-01T21:31:09.090Z,97800.19
2023-08-01T21:33:36.434Z,97802.69
2023-08-01T21:36:03.183Z,97801.66
2023-08-01T21:38:30.013Z,97804.91
2023-08-01T21:40:56.969Z,97803.06
2023-08-01T21:43:23.574Z,97798.06
2023-08-01T21:46:01.864Z,97808.59
2023-08-01T21:48:29.275Z,97805.34
2023-08-01T21:50:55.974Z,97802.69
2023-08-01T21:53:22.668Z,97810.69
2023-08-01T21:55:49.919Z,97809.31
2023-08-01T21:58:17.219Z,97808.09
2023-08-01T22:00:45.137Z,97803.84
2023-08-01T22:03:12.663Z,97804.25
2023-08-01T22:05:39.632Z,97806.25
2023-08-01T22:08:07.542Z,97805.25
2023-08-01T22:10:35.094Z,97809.50
2023-08-01T22:13:02.486Z,97808.41
2023-08-01T22:15:30.078Z,97805.16
2023-08-01T22:17:57.945Z,97808.19
2023-08-01T22:20:24.692Z,97807.31
2023-08-01T22:22:51.400Z,97812.91
2023-08-01T22:25:18.396Z,97822.50
2023-08-01T22:27:45.198Z,97824.31
2023-08-01T22:30:12.091Z,97828.66
2023-08-01T22:32:38.805Z,97825.78
2023-08-01T22:35:06.116Z,97824.50
2023-08-01T22:37:32.895Z,97826.16
2023-08-01T22:40:00.711Z,97824.06
2023-08-01T22:42:27.536Z,97812.16
2023-08-01T22:44:54.116Z,97820.44
2023-08-01T22:47:20.717Z,97830.22
2023-08-01T22:49:59.170Z,97823.97
2023-08-01T22:52:30.966Z,97822.31
2023-08-01T22:54:58.497Z,97829.94
2023-08-01T22:57:25.274Z,97829.56
2023-08-01T22:59:51.904Z,97836.66
2023-08-01T23:02:19.300Z,97835.38
2023-08-01T23:04:48.898Z,97837.38
2023-08-01T23:07:16.438Z,97839.28
2023-08-01T23:09:44.043Z,97826.84
2023-08-01T23:12:10.923Z,97837.53
2023-08-01T23:14:37.580Z,97830.88
2023-08-01T23:17:04.655Z,97824.72
2023-08-01T23:19:31.321Z,97830.25
2023-08-01T23:21:58.000Z,97828.88
2023-08-01T23:24:24.625Z,97822.53
2023-08-01T23:26:51.296Z,97833.94
2023-08-01T23:29:17.960Z,97822.25
2023-08-01T23:31:44.608Z,97818.09
2023-08-01T23:34:11.267Z,97823.53
2023-08-01T23:36:37.901Z,97819.50
2023-08-01T23:39:04.631Z,97817.72
2023-08-01T23:41:31.268Z,97812.03
2023-08-01T23:43:58.006Z,97818.19
2023-08-01T23:46:24.969Z,97805.88
2023-08-01T23:48:51.696Z,97802.53
2023-08-01T23:51:20.219Z,97812.03
2023-08-01T23:53:47.626Z,97813.59
2023-08-01T23:56:14.364Z,97810.28
2023-08-01T23:58:41.614Z,97806.59
